createdAt,value
2022-12-18T00:00:07.829Z,93.70
2022-12-18T00:02:41.839Z,98.17
2022-12-18T00:05:11.392Z,100.23
2022-12-18T00:07:39.900Z,95.43
2022-12-18T00:10:09.010Z,95.43
2022-12-18T00:12:37.027Z,101.23
2022-12-18T00:15:05.716Z,91.53
2022-12-18T00:17:33.723Z,100.10
2022-12-18T00:20:01.751Z,96.80
2022-12-18T00:22:31.126Z,100.87
2022-12-18T00:24:59.124Z,102.87
2022-12-18T00:27:27.158Z,98.87
2022-12-18T00:29:55.162Z,92.80
2022-12-18T00:32:23.355Z,91.57
2022-12-18T00:34:51.352Z,106.90
2022-12-18T00:37:20.448Z,96.77
2022-12-18T00:39:53.915Z,99.47
2022-12-18T00:42:39.591Z,96.23
2022-12-18T00:45:12.638Z,92.97
2022-12-18T00:47:41.605Z,102.70
2022-12-18T00:50:11.293Z,92.47
2022-12-18T00:52:39.338Z,97.03
2022-12-18T00:55:09.909Z,100.70
2022-12-18T00:57:38.029Z,102.70
2022-12-18T01:00:08.523Z,101.57
2022-12-18T01:02:36.810Z,93.83
2022-12-18T01:05:05.387Z,93.33
2022-12-18T01:07:33.402Z,99.90
2022-12-18T01:10:01.428Z,107.17
2022-12-18T01:12:30.884Z,106.33
2022-12-18T01:14:58.900Z,92.97
2022-12-18T01:17:26.944Z,97.57
2022-12-18T01:19:55.026Z,94.07
2022-12-18T01:22:23.111Z,91.40
2022-12-18T01:24:51.249Z,97.90
2022-12-18T01:27:19.321Z,90.67
2022-12-18T01:29:50.989Z,92.43
2022-12-18T01:32:21.160Z,104.63
2022-12-18T01:34:49.221Z,96.83
2022-12-18T01:37:17.213Z,83.97
2022-12-18T01:39:45.305Z,98.80
2022-12-18T01:42:16.591Z,96.47
2022-12-18T01:45:05.488Z,93.90
2022-12-18T01:47:37.641Z,87.63
2022-12-18T01:50:10.193Z,87.50
2022-12-18T01:52:39.199Z,92.57
2022-12-18T01:55:09.153Z,94.13
2022-12-18T01:57:37.817Z,88.13
2022-12-18T02:00:10.262Z,94.87
2022-12-18T02:02:42.217Z,92.47
2022-12-18T02:05:12.085Z,87.13
2022-12-18T02:07:48.441Z,87.70
2022-12-18T02:10:22.756Z,85.63
2022-12-18T02:13:09.093Z,91.83
2022-12-18T02:15:42.708Z,81.97
2022-12-18T02:18:14.219Z,79.03
2022-12-18T02:20:48.228Z,86.37
2022-12-18T02:23:33.458Z,85.00
2022-12-18T02:26:09.761Z,85.20
2022-12-18T02:28:43.350Z,86.43
2022-12-18T02:31:16.921Z,85.10
2022-12-18T02:33:47.313Z,79.37
2022-12-18T02:36:18.291Z,87.53
2022-12-18T02:38:48.752Z,82.90
2022-12-18T02:41:20.483Z,80.83
2022-12-18T02:43:58.059Z,89.33
2022-12-18T02:46:32.584Z,84.33
2022-12-18T02:49:16.975Z,86.67
2022-12-18T02:51:54.798Z,89.40
2022-12-18T02:54:35.305Z,82.07
2022-12-18T02:57:12.732Z,87.33
2022-12-18T02:59:49.738Z,91.37
2022-12-18T03:02:24.725Z,77.97
2022-12-18T03:05:00.531Z,80.47
2022-12-18T03:07:36.154Z,76.10
2022-12-18T03:10:08.979Z,87.30
2022-12-18T03:12:45.075Z,81.10
2022-12-18T03:15:18.177Z,79.67
2022-12-18T03:17:54.147Z,82.20
2022-12-18T03:20:24.803Z,77.67
2022-12-18T03:23:02.100Z,82.73
2022-12-18T03:25:32.608Z,81.53
2022-12-18T03:28:04.237Z,78.50
2022-12-18T03:30:34.657Z,88.37
2022-12-18T03:33:09.929Z,90.23
2022-12-18T03:35:42.077Z,87.53
2022-12-18T03:38:11.266Z,86.30
2022-12-18T03:40:55.225Z,83.13
2022-12-18T03:43:37.090Z,86.80
2022-12-18T03:46:10.128Z,87.50
2022-12-18T03:48:44.152Z,81.40
2022-12-18T03:51:20.909Z,76.30
2022-12-18T03:53:55.605Z,77.93
2022-12-18T03:56:32.719Z,78.83
2022-12-18T03:59:05.181Z,82.00
2022-12-18T04:01:37.473Z,85.57
2022-12-18T04:04:08.114Z,71.10
2022-12-18T04:06:40.765Z,80.23
2022-12-18T04:09:11.710Z,83.50
2022-12-18T04:11:45.452Z,79.13
2022-12-18T04:14:18.264Z,78.97
2022-12-18T04:16:50.026Z,79.67
2022-12-18T04:19:20.548Z,81.17
2022-12-18T04:21:51.597Z,78.17
2022-12-18T04:24:19.786Z,75.40
2022-12-18T04:26:59.409Z,85.07
2022-12-18T04:29:34.514Z,79.97
2022-12-18T04:32:02.793Z,74.07
2022-12-18T04:34:32.772Z,84.27
2022-12-18T04:37:00.852Z,88.33
2022-12-18T04:39:28.853Z,77.10
2022-12-18T04:42:01.543Z,82.90
2022-12-18T04:44:30.050Z,80.23
2022-12-18T04:46:59.521Z,79.63
2022-12-18T04:49:27.550Z,76.40
2022-12-18T04:51:55.816Z,76.17
2022-12-18T04:54:23.809Z,82.17
2022-12-18T04:56:52.184Z,68.73
2022-12-18T04:59:20.515Z,82.50
2022-12-18T05:01:48.685Z,78.23
2022-12-18T05:04:18.218Z,77.43
2022-12-18T05:06:46.505Z,81.70
2022-12-18T05:09:14.545Z,77.37
2022-12-18T05:11:42.603Z,75.57
2022-12-18T05:14:10.613Z,73.97
2022-12-18T05:16:38.613Z,68.90
2022-12-18T05:19:06.682Z,64.50
2022-12-18T05:21:36.219Z,66.80
2022-12-18T05:24:04.412Z,71.37
2022-12-18T05:26:32.384Z,67.93
2022-12-18T05:29:00.392Z,70.43
2022-12-18T05:31:28.780Z,62.17
2022-12-18T05:33:56.867Z,63.23
2022-12-18T05:36:24.871Z,62.97
2022-12-18T05:38:54.264Z,65.80
2022-12-18T05:41:22.237Z,62.17
2022-12-18T05:43:50.242Z,63.57
2022-12-18T05:46:20.206Z,67.03
2022-12-18T05:48:49.191Z,54.43
2022-12-18T05:51:20.127Z,56.63
2022-12-18T05:53:49.175Z,56.07
2022-12-18T05:56:21.571Z,59.17
2022-12-18T05:58:49.732Z,58.47
2022-12-18T06:01:19.637Z,60.10
2022-12-18T06:03:48.128Z,57.43
2022-12-18T06:06:17.496Z,55.93
2022-12-18T06:08:46.649Z,56.00
2022-12-18T06:11:15.348Z,51.37
2022-12-18T06:13:44.737Z,51.57
2022-12-18T06:16:12.743Z,46.80
2022-12-18T06:18:41.018Z,50.67
2022-12-18T06:21:09.086Z,51.80
2022-12-18T06:23:38.041Z,57.43
2022-12-18T06:26:08.823Z,47.83
2022-12-18T06:28:37.175Z,53.33
2022-12-18T06:31:07.988Z,53.97
2022-12-18T06:33:36.121Z,52.33
2022-12-18T06:36:06.631Z,49.90
2022-12-18T06:38:36.350Z,50.23
2022-12-18T06:41:09.056Z,50.53
2022-12-18T06:43:37.651Z,48.70
2022-12-18T06:46:08.217Z,49.87
2022-12-18T06:48:36.448Z,51.17
2022-12-18T06:51:05.169Z,47.40
2022-12-18T06:53:34.132Z,43.37
2022-12-18T06:56:09.236Z,44.93
2022-12-18T06:58:37.793Z,44.90
2022-12-18T07:01:09.583Z,47.97
2022-12-18T07:03:38.570Z,43.30
2022-12-18T07:06:07.354Z,51.90
2022-12-18T07:08:35.379Z,48.90
2022-12-18T07:11:06.121Z,42.67
2022-12-18T07:13:34.165Z,43.67
2022-12-18T07:16:16.009Z,44.13
2022-12-18T07:18:47.121Z,47.90
2022-12-18T07:21:17.711Z,44.40
2022-12-18T07:23:48.866Z,49.97
2022-12-18T07:26:21.277Z,46.57
2022-12-18T07:28:49.490Z,41.30
2022-12-18T07:31:22.396Z,44.10
2022-12-18T07:33:51.561Z,44.03
2022-12-18T07:36:25.268Z,47.07
2022-12-18T07:38:54.031Z,39.80
2022-12-18T07:41:22.576Z,36.90
2022-12-18T07:43:50.883Z,43.90
2022-12-18T07:46:20.649Z,47.73
2022-12-18T07:48:49.983Z,43.13
2022-12-18T07:51:19.574Z,39.30
2022-12-18T07:53:49.698Z,42.73
2022-12-18T07:56:30.389Z,41.03
2022-12-18T07:58:59.887Z,41.83
2022-12-18T08:01:31.964Z,39.27
2022-12-18T08:04:00.200Z,37.73
2022-12-18T08:06:28.211Z,38.93
2022-12-18T08:08:57.301Z,36.30
2022-12-18T08:11:27.031Z,32.73
2022-12-18T08:13:55.655Z,37.40
2022-12-18T08:16:25.421Z,35.63
2022-12-18T08:18:55.595Z,34.37
2022-12-18T08:21:25.620Z,34.50
2022-12-18T08:23:54.999Z,33.60
2022-12-18T08:26:23.668Z,31.50
2022-12-18T08:28:52.515Z,35.20
2022-12-18T08:31:21.287Z,33.63
2022-12-18T08:33:51.415Z,35.53
2022-12-18T08:36:21.460Z,32.67
2022-12-18T08:38:49.676Z,30.73
2022-12-18T08:41:19.143Z,29.93
2022-12-18T08:44:05.068Z,33.73
2022-12-18T08:46:38.625Z,29.07
2022-12-18T08:49:07.726Z,31.67
2022-12-18T08:51:37.781Z,30.27
2022-12-18T08:54:06.980Z,30.13
2022-12-18T08:56:35.321Z,30.17
2022-12-18T08:59:03.699Z,32.53
2022-12-18T09:01:32.565Z,28.40
2022-12-18T09:04:01.747Z,32.67
2022-12-18T09:06:29.762Z,33.83
2022-12-18T09:08:59.563Z,27.93
2022-12-18T09:11:30.361Z,27.87
2022-12-18T09:13:58.881Z,30.33
2022-12-18T09:16:32.233Z,25.53
2022-12-18T09:19:01.555Z,26.90
2022-12-18T09:21:31.740Z,24.60
2022-12-18T09:24:02.957Z,25.93
2022-12-18T09:26:31.631Z,25.57
2022-12-18T09:28:59.667Z,28.57
2022-12-18T09:31:27.714Z,32.03
2022-12-18T09:33:57.293Z,34.90
2022-12-18T09:36:25.398Z,32.33
2022-12-18T09:38:54.202Z,38.57
2022-12-18T09:41:38.347Z,34.67
2022-12-18T09:44:14.747Z,26.37
2022-12-18T09:46:46.789Z,28.00
2022-12-18T09:49:19.713Z,28.30
2022-12-18T09:51:54.998Z,27.47
2022-12-18T09:54:27.427Z,26.93
2022-12-18T09:56:57.444Z,26.73
2022-12-18T09:59:29.184Z,23.03
2022-12-18T10:01:58.734Z,24.30
2022-12-18T10:04:32.971Z,26.37
2022-12-18T10:07:09.400Z,24.50
2022-12-18T10:09:43.562Z,23.50
2022-12-18T10:12:23.395Z,26.13
2022-12-18T10:14:57.305Z,24.77
2022-12-18T10:17:35.906Z,27.60
2022-12-18T10:20:07.464Z,30.63
2022-12-18T10:22:49.842Z,33.23
2022-12-18T10:25:26.315Z,27.07
2022-12-18T10:27:59.286Z,28.67
2022-12-18T10:30:27.983Z,36.77
2022-12-18T10:32:57.199Z,46.43
2022-12-18T10:35:27.783Z,27.03
2022-12-18T10:38:07.856Z,22.30
2022-12-18T10:40:50.715Z,46.67
2022-12-18T10:43:23.999Z,23.20
2022-12-18T10:46:14.063Z,23.63
2022-12-18T10:48:50.000Z,20.23
2022-12-18T10:51:22.956Z,22.17
2022-12-18T10:53:56.632Z,21.50
2022-12-18T10:56:26.920Z,24.53
2022-12-18T10:59:01.744Z,23.30
2022-12-18T11:01:47.545Z,26.77
2022-12-18T11:04:21.115Z,24.97
2022-12-18T11:06:57.902Z,22.63
2022-12-18T11:09:27.829Z,22.07
2022-12-18T11:11:58.169Z,20.33
2022-12-18T11:14:29.676Z,23.83
2022-12-18T11:19:55.225Z,19.40
2022-12-18T11:22:27.434Z,23.03
2022-12-18T11:27:51.430Z,24.53
2022-12-18T11:30:26.521Z,23.47
2022-12-18T11:32:57.977Z,26.63
2022-12-18T11:35:36.758Z,22.23
2022-12-18T11:38:12.913Z,32.13
2022-12-18T11:40:46.148Z,24.30
2022-12-18T11:43:18.974Z,25.70
2022-12-18T11:45:54.815Z,27.87
2022-12-18T11:48:27.084Z,23.93
2022-12-18T11:50:56.800Z,26.37
2022-12-18T11:53:26.327Z,50.67
2022-12-18T11:56:21.869Z,42.97
2022-12-18T11:58:55.150Z,39.67
2022-12-18T12:01:44.009Z,46.17
2022-12-18T12:04:43.178Z,30.10
2022-12-18T12:07:23.373Z,24.60
2022-12-18T12:10:01.874Z,27.77
2022-12-18T12:12:51.164Z,23.70
2022-12-18T12:15:36.773Z,26.57
2022-12-18T12:18:15.780Z,28.00
2022-12-18T12:20:53.409Z,26.50
2022-12-18T12:23:32.379Z,29.53
2022-12-18T12:26:05.065Z,26.90
2022-12-18T12:28:58.568Z,27.17
2022-12-18T12:31:39.589Z,26.13
2022-12-18T12:34:19.076Z,25.67
2022-12-18T12:36:59.885Z,26.33
2022-12-18T12:39:34.066Z,24.63
2022-12-18T12:42:20.197Z,21.70
2022-12-18T12:44:56.205Z,25.23
2022-12-18T12:47:28.920Z,23.20
2022-12-18T12:50:00.754Z,23.67
2022-12-18T12:52:36.342Z,22.90
2022-12-18T12:55:14.459Z,23.70
2022-12-18T12:57:48.024Z,23.23
2022-12-18T13:00:20.245Z,26.20
2022-12-18T13:02:54.789Z,24.90
2022-12-18T13:05:28.959Z,22.73
2022-12-18T13:08:01.377Z,25.70
2022-12-18T13:10:35.393Z,24.97
2022-12-18T13:13:05.548Z,24.67
2022-12-18T13:15:41.846Z,23.00
2022-12-18T13:18:19.518Z,23.73
2022-12-18T13:20:54.399Z,24.17
2022-12-18T13:23:42.834Z,22.13
2022-12-18T13:26:37.970Z,24.47
2022-12-18T13:29:07.123Z,23.57
2022-12-18T13:32:05.611Z,20.00
2022-12-18T13:34:37.385Z,23.73
2022-12-18T13:37:43.957Z,21.97
2022-12-18T13:40:57.525Z,22.10
2022-12-18T13:43:38.611Z,22.33
2022-12-18T13:46:21.385Z,24.37
2022-12-18T13:48:59.659Z,23.77
2022-12-18T13:51:28.729Z,28.50
2022-12-18T13:54:00.107Z,28.27
2022-12-18T13:56:29.909Z,36.23
2022-12-18T13:59:24.610Z,39.13
2022-12-18T14:01:55.576Z,37.13
2022-12-18T14:04:26.549Z,33.67
2022-12-18T14:06:57.514Z,30.10
2022-12-18T14:09:29.156Z,31.17
2022-12-18T14:12:13.126Z,37.97
2022-12-18T14:14:46.440Z,28.50
2022-12-18T14:17:17.935Z,24.20
2022-12-18T14:19:48.505Z,23.33
2022-12-18T14:22:19.243Z,22.70
2022-12-18T14:24:47.874Z,25.07
2022-12-18T14:27:24.119Z,22.83
2022-12-18T14:29:53.861Z,24.33
2022-12-18T14:32:23.496Z,23.40
2022-12-18T14:34:52.968Z,23.47
2022-12-18T14:37:25.199Z,24.27
2022-12-18T14:39:59.090Z,22.93
2022-12-18T14:42:29.364Z,20.53
2022-12-18T14:45:41.347Z,20.67
2022-12-18T14:48:19.098Z,20.33
2022-12-18T14:51:00.447Z,18.23
2022-12-18T14:53:36.927Z,23.20
2022-12-18T14:56:12.424Z,20.70
2022-12-18T14:58:40.833Z,20.57
2022-12-18T15:01:10.459Z,19.93
2022-12-18T15:03:45.908Z,18.93
2022-12-18T15:06:19.776Z,21.97
2022-12-18T15:08:48.575Z,19.87
2022-12-18T15:11:31.776Z,22.03
2022-12-18T15:14:01.743Z,19.73
2022-12-18T15:16:31.452Z,20.80
2022-12-18T15:18:59.764Z,19.80
2022-12-18T15:21:31.667Z,19.23
2022-12-18T15:24:01.509Z,19.57
2022-12-18T15:26:39.620Z,19.47
2022-12-18T15:29:11.366Z,18.77
2022-12-18T15:31:46.530Z,16.73
2022-12-18T15:34:21.343Z,18.30
2022-12-18T15:36:49.711Z,18.53
2022-12-18T15:39:18.264Z,22.10
2022-12-18T15:42:00.752Z,17.97
2022-12-18T15:44:29.435Z,28.13
2022-12-18T15:46:59.188Z,17.20
2022-12-18T15:49:27.742Z,17.77
2022-12-18T15:51:58.786Z,16.80
2022-12-18T15:54:41.073Z,18.47
2022-12-18T15:57:27.586Z,19.77
2022-12-18T15:59:59.512Z,22.03
2022-12-18T16:02:30.101Z,19.03
2022-12-18T16:04:58.789Z,19.83
2022-12-18T16:07:30.309Z,24.83
2022-12-18T16:10:02.697Z,17.83
2022-12-18T16:12:31.150Z,22.47
2022-12-18T16:14:59.459Z,21.70
2022-12-18T16:17:29.176Z,18.67
2022-12-18T16:19:57.460Z,19.80
2022-12-18T16:22:27.850Z,26.20
2022-12-18T16:24:57.294Z,27.13
2022-12-18T16:27:26.629Z,22.90
2022-12-18T16:29:54.987Z,23.13
2022-12-18T16:32:24.813Z,27.10
2022-12-18T16:34:54.762Z,26.73
2022-12-18T16:37:23.023Z,20.97
2022-12-18T16:39:51.225Z,25.93
2022-12-18T16:42:21.473Z,19.93
2022-12-18T16:44:51.151Z,19.97
2022-12-18T16:47:24.887Z,17.20
2022-12-18T16:49:56.778Z,18.57
2022-12-18T16:52:25.887Z,19.73
2022-12-18T16:54:54.224Z,18.17
2022-12-18T16:57:25.333Z,19.73
2022-12-18T16:59:54.235Z,18.53
2022-12-18T17:02:24.521Z,20.00
2022-12-18T17:04:56.753Z,21.00
2022-12-18T17:07:25.434Z,17.87
2022-12-18T17:09:54.329Z,20.40
2022-12-18T17:12:23.314Z,22.20
2022-12-18T17:14:51.533Z,21.13
2022-12-18T17:17:22.817Z,19.37
2022-12-18T17:19:51.527Z,17.57
2022-12-18T17:22:21.541Z,19.60
2022-12-18T17:24:49.910Z,19.50
2022-12-18T17:27:18.200Z,17.47
2022-12-18T17:29:48.227Z,17.63
2022-12-18T17:32:17.034Z,15.77
2022-12-18T17:34:45.306Z,20.00
2022-12-18T17:37:13.742Z,18.13
2022-12-18T17:39:43.546Z,23.03
2022-12-18T17:42:15.021Z,16.80
2022-12-18T17:44:44.516Z,20.03
2022-12-18T17:47:13.248Z,20.27
2022-12-18T17:49:42.022Z,21.20
2022-12-18T17:52:10.492Z,16.33
2022-12-18T17:54:41.516Z,23.13
2022-12-18T17:57:11.477Z,20.97
2022-12-18T17:59:39.796Z,22.60
2022-12-18T18:02:08.536Z,34.70
2022-12-18T18:04:37.091Z,21.80
2022-12-18T18:07:05.326Z,45.33
2022-12-18T18:09:33.896Z,49.13
2022-12-18T18:12:19.873Z,17.77
2022-12-18T18:14:49.705Z,17.83
2022-12-18T18:17:18.425Z,15.83
2022-12-18T18:19:49.634Z,18.53
2022-12-18T18:22:18.731Z,17.20
2022-12-18T18:24:47.363Z,17.40
2022-12-18T18:27:16.357Z,20.07
2022-12-18T18:29:45.155Z,18.13
2022-12-18T18:32:14.815Z,19.47
2022-12-18T18:34:43.107Z,17.80
2022-12-18T18:37:12.228Z,15.87
2022-12-18T18:39:40.743Z,16.23
2022-12-18T18:42:09.158Z,17.50
2022-12-18T18:44:37.868Z,19.17
2022-12-18T18:47:06.331Z,17.40
2022-12-18T18:49:39.281Z,16.00
2022-12-18T18:52:08.348Z,15.67
2022-12-18T18:54:36.623Z,17.60
2022-12-18T18:57:20.241Z,18.47
2022-12-18T18:59:49.595Z,17.67
2022-12-18T19:02:19.026Z,19.90
2022-12-18T19:04:48.714Z,15.13
2022-12-18T19:07:26.142Z,18.90
2022-12-18T19:10:04.110Z,25.67
2022-12-18T19:12:51.966Z,18.57
2022-12-18T19:15:20.323Z,19.60
2022-12-18T19:17:48.614Z,18.47
2022-12-18T19:20:18.577Z,20.43
2022-12-18T19:22:55.217Z,19.90
2022-12-18T19:25:40.411Z,16.13
2022-12-18T19:28:17.367Z,16.87
2022-12-18T19:30:56.351Z,19.50
2022-12-18T19:33:45.204Z,17.90
2022-12-18T19:36:19.611Z,19.43
2022-12-18T19:38:48.191Z,18.10
2022-12-18T19:41:17.906Z,20.90
2022-12-18T19:43:47.513Z,17.50
2022-12-18T19:46:17.986Z,19.93
2022-12-18T19:48:47.308Z,16.00
2022-12-18T19:51:18.777Z,17.17
2022-12-18T19:53:47.716Z,18.30
2022-12-18T19:56:18.027Z,19.10
2022-12-18T19:58:46.633Z,26.97
2022-12-18T20:01:16.890Z,17.37
2022-12-18T20:03:50.445Z,18.40
2022-12-18T20:06:27.790Z,19.20
2022-12-18T20:09:00.447Z,18.80
2022-12-18T20:11:30.144Z,30.77
2022-12-18T20:13:58.607Z,22.73
2022-12-18T20:16:30.216Z,30.40
2022-12-18T20:18:59.323Z,26.10
2022-12-18T20:21:29.060Z,47.40
2022-12-18T20:23:59.123Z,17.17
2022-12-18T20:26:27.657Z,19.47
2022-12-18T20:28:56.234Z,19.33
2022-12-18T20:31:24.731Z,18.00
2022-12-18T20:33:53.356Z,22.43
2022-12-18T20:36:28.185Z,35.67
2022-12-18T20:39:01.819Z,23.70
2022-12-18T20:41:35.035Z,28.13
2022-12-18T20:44:10.983Z,30.67
2022-12-18T20:46:51.033Z,22.97
2022-12-18T20:49:19.292Z,67.17
2022-12-18T20:51:50.410Z,37.07
2022-12-18T20:54:20.110Z,26.10
2022-12-18T20:56:48.495Z,28.63
2022-12-18T20:59:16.694Z,28.07
2022-12-18T21:01:48.605Z,22.90
2022-12-18T21:04:18.655Z,21.23
2022-12-18T21:06:53.093Z,19.93
2022-12-18T21:09:25.570Z,19.33
2022-12-18T21:12:14.148Z,25.57
2022-12-18T21:14:43.238Z,19.13
2022-12-18T21:17:12.305Z,19.93
2022-12-18T21:19:40.701Z,23.50
2022-12-18T21:22:09.660Z,24.53
2022-12-18T21:24:39.491Z,27.13
2022-12-18T21:27:07.751Z,29.17
2022-12-18T21:29:36.268Z,24.97
2022-12-18T21:32:05.758Z,22.23
2022-12-18T21:34:34.534Z,24.60
2022-12-18T21:37:03.128Z,23.10
2022-12-18T21:39:31.926Z,26.87
2022-12-18T21:42:18.890Z,21.50
2022-12-18T21:44:49.407Z,25.17
2022-12-18T21:47:22.552Z,23.03
2022-12-18T21:49:53.194Z,24.73
2022-12-18T21:52:29.823Z,24.10
2022-12-18T21:55:08.015Z,21.87
2022-12-18T21:57:39.503Z,25.93
2022-12-18T22:00:18.430Z,21.83
2022-12-18T22:02:48.473Z,24.23
2022-12-18T22:05:36.225Z,24.30
2022-12-18T22:08:04.603Z,20.53
2022-12-18T22:10:33.332Z,22.43
2022-12-18T22:13:03.017Z,23.23
2022-12-18T22:15:31.358Z,22.37
2022-12-18T22:18:00.249Z,23.00
2022-12-18T22:20:29.709Z,22.40
2022-12-18T22:22:58.601Z,22.53
2022-12-18T22:25:27.617Z,22.67
2022-12-18T22:28:13.233Z,24.63
2022-12-18T22:30:42.684Z,24.97
2022-12-18T22:33:10.711Z,20.27
2022-12-18T22:35:38.780Z,19.83
2022-12-18T22:38:07.017Z,23.83
2022-12-18T22:40:35.033Z,23.70
2022-12-18T22:43:03.134Z,22.50
2022-12-18T22:45:31.181Z,23.87
2022-12-18T22:48:02.028Z,20.27
2022-12-18T22:50:30.191Z,24.83
2022-12-18T22:52:58.160Z,24.47
2022-12-18T22:55:26.199Z,24.23
2022-12-18T22:57:54.244Z,25.10
2022-12-18T23:00:24.119Z,26.63
2022-12-18T23:02:59.352Z,22.60
2022-12-18T23:05:30.608Z,27.97
2022-12-18T23:07:59.233Z,25.83
2022-12-18T23:10:27.522Z,24.03
2022-12-18T23:12:55.829Z,28.10
2022-12-18T23:15:27.929Z,26.80
2022-12-18T23:17:57.214Z,26.30
2022-12-18T23:20:25.429Z,25.27
2022-12-18T23:22:54.801Z,26.37
2022-12-18T23:25:22.839Z,27.43
2022-12-18T23:27:50.843Z,27.37
2022-12-18T23:30:19.034Z,27.30
2022-12-18T23:32:47.147Z,27.57
2022-12-18T23:35:15.868Z,32.53
2022-12-18T23:38:00.676Z,27.33
2022-12-18T23:40:31.013Z,27.50
2022-12-18T23:43:00.425Z,29.80
2022-12-18T23:45:28.496Z,28.53
2022-12-18T23:47:56.526Z,29.10
2022-12-18T23:50:29.041Z,29.57
2022-12-18T23:53:05.317Z,31.60
2022-12-18T23:55:39.688Z,29.30
2022-12-18T23:58:08.599Z,29.97
